createdAt,value
2019-01-30T00:00:35.446Z,2.20
2019-01-30T00:03:01.868Z,2.10
2019-01-30T00:05:28.392Z,2.10
2019-01-30T00:07:54.590Z,2.00
2019-01-30T00:10:20.919Z,2.00
2019-01-30T00:12:47.115Z,2.00
2019-01-30T00:15:14.039Z,2.00
2019-01-30T00:17:40.244Z,2.00
2019-01-30T00:20:12.794Z,2.00
2019-01-30T00:22:39.094Z,1.90
2019-01-30T00:25:07.928Z,2.00
2019-01-30T00:27:34.140Z,1.90
2019-01-30T00:30:04.215Z,1.90
2019-01-30T00:32:28.470Z,1.90
2019-01-30T00:34:54.692Z,1.90
2019-01-30T00:37:20.888Z,1.90
2019-01-30T00:39:47.117Z,1.90
2019-01-30T00:42:13.314Z,1.90
2019-01-30T00:44:39.514Z,1.90
2019-01-30T00:47:15.548Z,1.80
2019-01-30T00:49:33.941Z,1.80
2019-01-30T00:52:00.171Z,1.80
2019-01-30T00:54:32.112Z,1.80
2019-01-30T00:57:06.438Z,1.70
2019-01-30T00:59:32.659Z,1.80
2019-01-30T01:01:58.987Z,1.80
2019-01-30T01:04:25.297Z,1.80
2019-01-30T01:06:51.506Z,1.80
2019-01-30T01:09:17.961Z,1.80
2019-01-30T01:11:44.179Z,1.90
2019-01-30T01:14:10.410Z,1.80
2019-01-30T01:16:36.689Z,1.80
2019-01-30T01:19:03.090Z,1.80
2019-01-30T01:21:29.519Z,1.80
2019-01-30T01:23:55.718Z,1.80
2019-01-30T01:26:21.922Z,1.90
2019-01-30T01:28:48.147Z,1.90
2019-01-30T01:31:14.593Z,1.90
2019-01-30T01:33:40.820Z,1.80
2019-01-30T01:36:07.315Z,1.90
2019-01-30T01:38:33.543Z,1.90
2019-01-30T01:40:59.742Z,1.80
2019-01-30T01:43:25.954Z,1.90
2019-01-30T01:45:52.159Z,1.80
2019-01-30T01:48:18.384Z,1.90
2019-01-30T01:50:44.592Z,1.90
2019-01-30T01:53:10.811Z,1.90
2019-01-30T01:55:37.093Z,1.90
2019-01-30T01:58:03.474Z,1.80
2019-01-30T02:00:35.495Z,1.80
2019-01-30T02:02:57.982Z,1.80
2019-01-30T02:05:24.204Z,1.70
2019-01-30T02:07:51.216Z,1.80
2019-01-30T02:10:20.978Z,1.70
2019-01-30T02:12:47.278Z,1.80
2019-01-30T02:15:15.799Z,1.70
2019-01-30T02:17:42.149Z,1.70
2019-01-30T02:20:14.335Z,1.70
2019-01-30T02:22:40.681Z,1.60
2019-01-30T02:25:09.706Z,1.60
2019-01-30T02:27:36.098Z,1.60
2019-01-30T02:30:11.967Z,1.50
2019-01-30T02:32:38.170Z,1.60
2019-01-30T02:35:05.285Z,1.50
2019-01-30T02:37:31.491Z,1.60
2019-01-30T02:39:57.703Z,1.50
2019-01-30T02:42:24.199Z,1.50
2019-01-30T02:44:50.423Z,1.50
2019-01-30T02:47:16.622Z,1.50
2019-01-30T02:49:42.878Z,1.50
2019-01-30T02:52:09.211Z,1.50
2019-01-30T02:54:35.406Z,1.40
2019-01-30T02:57:01.646Z,1.50
2019-01-30T02:59:27.854Z,1.50
2019-01-30T03:01:55.973Z,1.40
2019-01-30T03:04:22.183Z,1.40
2019-01-30T03:06:48.406Z,1.40
2019-01-30T03:09:14.616Z,1.40
2019-01-30T03:11:40.827Z,1.50
2019-01-30T03:14:07.041Z,1.50
2019-01-30T03:16:33.563Z,1.50
2019-01-30T03:18:59.773Z,1.50
2019-01-30T03:21:25.998Z,1.60
2019-01-30T03:23:52.194Z,1.60
2019-01-30T03:26:18.442Z,1.60
2019-01-30T03:28:44.763Z,1.60
2019-01-30T03:31:17.894Z,1.70
2019-01-30T03:33:39.282Z,1.80
2019-01-30T03:36:05.487Z,1.80
2019-01-30T03:38:31.709Z,1.80
2019-01-30T03:40:58.016Z,1.80
2019-01-30T03:43:24.236Z,1.70
2019-01-30T03:45:50.440Z,1.70
2019-01-30T03:48:36.520Z,1.70
2019-01-30T03:51:02.726Z,1.80
2019-01-30T03:53:29.156Z,1.80
2019-01-30T03:55:55.458Z,1.80
2019-01-30T03:58:21.694Z,1.80
2019-01-30T04:00:47.902Z,1.70
2019-01-30T04:03:14.529Z,1.70
2019-01-30T04:05:40.735Z,1.70
2019-01-30T04:08:06.953Z,1.70
2019-01-30T04:10:33.153Z,1.60
2019-01-30T04:12:59.367Z,1.60
2019-01-30T04:15:25.587Z,1.60
2019-01-30T04:17:51.991Z,1.60
2019-01-30T04:20:19.417Z,1.60
2019-01-30T04:22:46.213Z,1.60
2019-01-30T04:25:12.733Z,1.60
2019-01-30T04:27:39.038Z,1.60
2019-01-30T04:30:20.254Z,1.70
2019-01-30T04:32:46.551Z,1.60
2019-01-30T04:35:13.081Z,1.60
2019-01-30T04:37:39.290Z,1.60
2019-01-30T04:40:09.317Z,1.50
2019-01-30T04:42:35.514Z,1.60
2019-01-30T04:45:17.138Z,1.60
2019-01-30T04:47:43.337Z,1.60
2019-01-30T04:50:09.762Z,1.70
2019-01-30T04:52:35.996Z,1.70
2019-01-30T04:55:03.519Z,1.70
2019-01-30T04:57:29.827Z,1.70
2019-01-30T04:59:56.355Z,1.80
2019-01-30T05:02:22.554Z,1.80
2019-01-30T05:05:09.370Z,1.80
2019-01-30T05:07:35.575Z,1.90
2019-01-30T05:10:02.828Z,1.80
2019-01-30T05:12:29.031Z,1.90
2019-01-30T05:14:55.240Z,1.90
2019-01-30T05:17:21.463Z,1.90
2019-01-30T05:19:47.766Z,1.90
2019-01-30T05:22:13.985Z,1.90
2019-01-30T05:24:40.192Z,2.00
2019-01-30T05:27:06.499Z,2.00
2019-01-30T05:29:32.707Z,2.00
2019-01-30T05:32:01.273Z,2.00
2019-01-30T05:34:27.035Z,2.00
2019-01-30T05:36:53.300Z,2.00
2019-01-30T05:39:19.557Z,2.10
2019-01-30T05:41:45.791Z,2.10
2019-01-30T05:44:11.986Z,2.00
2019-01-30T05:46:38.227Z,2.00
2019-01-30T05:49:04.430Z,2.00
2019-01-30T05:51:30.670Z,2.00
2019-01-30T05:53:56.878Z,2.00
2019-01-30T05:56:23.094Z,2.00
2019-01-30T05:58:49.301Z,2.10
2019-01-30T06:01:15.659Z,2.10
2019-01-30T06:03:41.925Z,2.20
2019-01-30T06:06:08.234Z,2.10
2019-01-30T06:08:34.462Z,2.10
2019-01-30T06:11:00.663Z,2.00
2019-01-30T06:13:26.873Z,1.90
2019-01-30T06:15:53.331Z,1.80
2019-01-30T06:18:19.654Z,1.60
2019-01-30T06:20:45.855Z,1.40
2019-01-30T06:23:12.066Z,1.40
2019-01-30T06:25:38.370Z,1.40
2019-01-30T06:28:04.710Z,1.30
2019-01-30T06:30:31.023Z,1.30
2019-01-30T06:32:57.246Z,1.30
2019-01-30T06:35:23.649Z,1.20
2019-01-30T06:37:50.066Z,1.30
2019-01-30T06:40:25.585Z,1.30
2019-01-30T06:42:51.931Z,1.30
2019-01-30T06:45:18.346Z,1.30
2019-01-30T06:47:44.754Z,1.20
2019-01-30T06:50:12.782Z,1.20
2019-01-30T06:52:39.004Z,1.20
2019-01-30T06:55:17.274Z,1.20
2019-01-30T06:57:43.486Z,1.20
2019-01-30T07:00:20.865Z,1.20
2019-01-30T07:02:47.559Z,1.20
2019-01-30T07:05:14.219Z,1.20
2019-01-30T07:07:40.658Z,1.20
2019-01-30T07:10:10.687Z,1.20
2019-01-30T07:12:36.883Z,1.30
2019-01-30T07:15:05.006Z,1.20
2019-01-30T07:17:31.206Z,1.20
2019-01-30T07:19:57.437Z,1.30
2019-01-30T07:22:23.980Z,1.40
2019-01-30T07:24:50.199Z,1.30
2019-01-30T07:27:16.402Z,1.20
2019-01-30T07:29:42.622Z,1.30
2019-01-30T07:32:09.034Z,1.20
2019-01-30T07:34:35.274Z,1.30
2019-01-30T07:37:01.478Z,1.40
2019-01-30T07:39:27.722Z,1.20
2019-01-30T07:42:12.371Z,1.20
2019-01-30T07:44:38.603Z,1.30
2019-01-30T07:47:04.859Z,1.30
2019-01-30T07:49:31.058Z,1.20
2019-01-30T07:51:57.583Z,1.30
2019-01-30T07:54:23.787Z,1.30
2019-01-30T07:56:50.108Z,1.30
2019-01-30T07:59:16.307Z,1.30
2019-01-30T08:01:42.532Z,1.40
2019-01-30T08:04:08.735Z,1.40
2019-01-30T08:06:35.070Z,1.50
2019-01-30T08:09:01.383Z,1.50
2019-01-30T08:11:27.602Z,1.50
2019-01-30T08:13:53.799Z,1.60
2019-01-30T08:16:21.818Z,1.50
2019-01-30T08:18:48.231Z,1.60
2019-01-30T08:21:14.704Z,1.60
2019-01-30T08:23:40.912Z,1.60
2019-01-30T08:26:07.419Z,1.70
2019-01-30T08:28:34.023Z,1.60
2019-01-30T08:31:01.275Z,1.80
2019-01-30T08:33:27.571Z,1.90
2019-01-30T08:35:53.794Z,1.80
2019-01-30T08:38:20.003Z,1.80
2019-01-30T08:40:46.198Z,1.80
2019-01-30T08:43:12.431Z,1.90
2019-01-30T08:45:38.635Z,1.90
2019-01-30T08:48:05.255Z,2.00
2019-01-30T08:50:31.562Z,1.90
2019-01-30T08:52:58.390Z,2.00
2019-01-30T08:55:24.707Z,1.90
2019-01-30T08:57:51.106Z,2.00
2019-01-30T09:00:21.113Z,2.00
2019-01-30T09:02:47.871Z,2.00
2019-01-30T09:05:14.575Z,2.00
2019-01-30T09:07:44.491Z,2.10
2019-01-30T09:10:14.543Z,2.10
2019-01-30T09:12:59.510Z,2.20
2019-01-30T09:15:27.824Z,2.10
2019-01-30T09:17:54.158Z,2.10
2019-01-30T09:20:21.970Z,2.10
2019-01-30T09:22:48.265Z,2.10
2019-01-30T09:25:17.490Z,2.10
2019-01-30T09:27:43.691Z,2.00
2019-01-30T09:30:13.515Z,2.00
2019-01-30T09:32:39.827Z,2.00
2019-01-30T09:35:08.749Z,2.10
2019-01-30T09:37:34.958Z,2.10
2019-01-30T09:40:01.218Z,2.10
2019-01-30T09:42:45.930Z,2.10
2019-01-30T09:45:15.223Z,2.00
2019-01-30T09:47:41.526Z,2.10
2019-01-30T09:50:11.146Z,2.10
2019-01-30T09:52:37.475Z,2.10
2019-01-30T09:55:06.998Z,2.10
2019-01-30T09:57:33.198Z,2.10
2019-01-30T09:59:59.428Z,2.10
2019-01-30T10:02:25.626Z,2.10
2019-01-30T10:04:51.932Z,2.30
2019-01-30T10:07:18.449Z,2.20
2019-01-30T10:09:44.670Z,2.20
2019-01-30T10:12:10.883Z,2.30
2019-01-30T10:14:37.094Z,2.30
2019-01-30T10:17:03.804Z,2.50
2019-01-30T10:19:30.026Z,2.50
2019-01-30T10:21:56.325Z,2.50
2019-01-30T10:24:22.542Z,2.60
2019-01-30T10:26:48.751Z,2.70
2019-01-30T10:29:14.967Z,2.80
2019-01-30T10:31:41.166Z,2.80
2019-01-30T10:34:07.390Z,2.90
2019-01-30T10:36:33.602Z,2.90
2019-01-30T10:39:00.072Z,2.80
2019-01-30T10:41:26.279Z,2.80
2019-01-30T10:43:52.499Z,2.70
2019-01-30T10:46:18.803Z,2.90
2019-01-30T10:48:45.042Z,2.90
2019-01-30T10:51:11.238Z,3.10
2019-01-30T10:53:37.454Z,3.10
2019-01-30T10:56:03.874Z,3.10
2019-01-30T10:58:30.396Z,3.30
2019-01-30T11:00:56.799Z,3.20
2019-01-30T11:03:23.126Z,3.20
2019-01-30T11:05:49.418Z,3.20
2019-01-30T11:08:15.618Z,3.10
2019-01-30T11:10:42.142Z,3.00
2019-01-30T11:13:08.549Z,3.20
2019-01-30T11:15:34.978Z,3.10
2019-01-30T11:18:21.042Z,3.20
2019-01-30T11:20:47.401Z,3.10
2019-01-30T11:23:13.901Z,3.30
2019-01-30T11:25:45.677Z,3.20
2019-01-30T11:28:11.987Z,3.10
2019-01-30T11:30:38.522Z,3.10
2019-01-30T11:33:04.803Z,3.10
2019-01-30T11:35:31.490Z,3.10
2019-01-30T11:37:57.714Z,3.10
2019-01-30T11:40:24.426Z,3.10
2019-01-30T11:43:05.592Z,3.00
2019-01-30T11:45:35.055Z,3.00
2019-01-30T11:48:01.400Z,2.90
2019-01-30T11:50:27.805Z,3.00
2019-01-30T11:52:54.122Z,2.90
2019-01-30T11:55:20.421Z,3.00
2019-01-30T11:57:46.938Z,3.10
2019-01-30T12:00:26.330Z,3.00
2019-01-30T12:02:52.762Z,3.00
2019-01-30T12:05:19.058Z,3.00
2019-01-30T12:07:45.486Z,2.70
2019-01-30T12:10:13.082Z,2.80
2019-01-30T12:12:39.510Z,2.80
2019-01-30T12:15:09.523Z,2.80
2019-01-30T12:17:35.733Z,2.80
2019-01-30T12:20:04.243Z,2.90
2019-01-30T12:22:30.566Z,2.90
2019-01-30T12:24:56.787Z,2.80
2019-01-30T12:27:23.004Z,2.80
2019-01-30T12:29:49.219Z,3.00
2019-01-30T12:32:15.438Z,3.00
2019-01-30T12:34:41.647Z,3.10
2019-01-30T12:37:08.078Z,3.10
2019-01-30T12:39:34.290Z,3.20
2019-01-30T12:42:00.503Z,3.00
2019-01-30T12:44:26.707Z,3.00
2019-01-30T12:46:53.190Z,2.90
2019-01-30T12:49:19.610Z,2.80
2019-01-30T12:51:45.836Z,2.90
2019-01-30T12:54:12.081Z,2.90
2019-01-30T12:56:38.283Z,2.80
2019-01-30T12:59:04.503Z,2.90
2019-01-30T13:01:31.077Z,2.90
2019-01-30T13:03:57.370Z,2.90
2019-01-30T13:06:23.686Z,2.80
2019-01-30T13:08:49.902Z,2.90
2019-01-30T13:11:16.106Z,2.80
2019-01-30T13:13:42.330Z,2.70
2019-01-30T13:16:08.554Z,2.60
2019-01-30T13:18:34.802Z,2.60
2019-01-30T13:21:00.997Z,2.60
2019-01-30T13:23:30.239Z,2.40
2019-01-30T13:25:56.477Z,2.30
2019-01-30T13:28:22.698Z,2.20
2019-01-30T13:30:49.262Z,2.20
2019-01-30T13:33:15.594Z,2.20
2019-01-30T13:35:41.799Z,2.20
2019-01-30T13:38:08.134Z,2.30
2019-01-30T13:40:35.938Z,2.40
2019-01-30T13:43:03.432Z,2.30
2019-01-30T13:45:29.997Z,2.20
2019-01-30T13:47:56.303Z,2.10
2019-01-30T13:50:24.659Z,2.20
2019-01-30T13:52:50.890Z,2.10
2019-01-30T13:55:17.310Z,2.00
2019-01-30T13:57:43.702Z,2.10
2019-01-30T14:00:18.768Z,2.00
2019-01-30T14:02:45.074Z,2.00
2019-01-30T14:05:11.623Z,2.10
2019-01-30T14:07:38.028Z,2.10
2019-01-30T14:10:07.131Z,1.90
2019-01-30T14:12:33.341Z,2.00
2019-01-30T14:14:59.700Z,1.80
2019-01-30T14:17:25.958Z,1.90
2019-01-30T14:19:52.200Z,1.80
2019-01-30T14:22:18.517Z,1.80
2019-01-30T14:24:44.823Z,1.90
2019-01-30T14:27:11.115Z,1.90
2019-01-30T14:29:37.330Z,1.90
2019-01-30T14:32:04.092Z,1.90
2019-01-30T14:34:30.409Z,2.00
2019-01-30T14:36:56.716Z,1.90
2019-01-30T14:39:22.958Z,1.90
2019-01-30T14:41:49.364Z,2.00
2019-01-30T14:44:15.646Z,2.00
2019-01-30T14:46:41.912Z,2.10
2019-01-30T14:49:08.241Z,2.20
2019-01-30T14:51:34.558Z,2.20
2019-01-30T14:54:00.826Z,2.20
2019-01-30T14:56:27.178Z,2.30
2019-01-30T14:58:53.411Z,2.30
2019-01-30T15:01:19.706Z,2.20
2019-01-30T15:03:47.479Z,2.10
2019-01-30T15:06:14.151Z,2.00
2019-01-30T15:08:40.358Z,2.00
2019-01-30T15:11:06.661Z,2.00
2019-01-30T15:13:32.870Z,1.90
2019-01-30T15:15:59.174Z,2.00
2019-01-30T15:18:25.504Z,2.00
2019-01-30T15:20:51.909Z,2.00
2019-01-30T15:23:18.218Z,2.10
2019-01-30T15:25:44.413Z,1.90
2019-01-30T15:28:11.370Z,1.90
2019-01-30T15:30:56.451Z,1.90
2019-01-30T15:33:22.714Z,1.90
2019-01-30T15:35:49.011Z,1.90
2019-01-30T15:38:15.409Z,2.00
2019-01-30T15:40:42.014Z,2.00
2019-01-30T15:43:08.234Z,1.80
2019-01-30T15:45:34.442Z,1.90
2019-01-30T15:48:00.674Z,1.90
2019-01-30T15:50:30.687Z,1.80
2019-01-30T15:52:57.706Z,1.80
2019-01-30T15:55:24.222Z,1.70
2019-01-30T15:57:59.851Z,1.80
2019-01-30T16:00:29.672Z,1.80
2019-01-30T16:02:56.267Z,1.80
2019-01-30T16:05:22.476Z,1.80
2019-01-30T16:07:48.683Z,1.70
2019-01-30T16:10:15.114Z,1.70
2019-01-30T16:12:43.322Z,1.80
2019-01-30T16:15:13.353Z,1.80
2019-01-30T16:17:39.550Z,1.80
2019-01-30T16:20:09.481Z,1.90
2019-01-30T16:22:35.683Z,1.80
2019-01-30T16:25:08.786Z,1.80
2019-01-30T16:27:30.515Z,1.80
2019-01-30T16:29:57.170Z,1.80
2019-01-30T16:32:24.274Z,1.70
2019-01-30T16:34:50.490Z,1.70
2019-01-30T16:37:16.696Z,1.70
2019-01-30T16:39:42.926Z,1.80
2019-01-30T16:42:09.238Z,1.80
2019-01-30T16:44:35.467Z,1.90
2019-01-30T16:47:01.991Z,1.80
2019-01-30T16:49:34.131Z,1.90
2019-01-30T16:52:00.364Z,1.80
2019-01-30T16:54:26.562Z,1.80
2019-01-30T16:56:52.778Z,1.90
2019-01-30T16:59:18.992Z,1.80
2019-01-30T17:01:45.210Z,2.00
2019-01-30T17:04:11.411Z,2.00
2019-01-30T17:06:37.639Z,1.90
2019-01-30T17:09:05.737Z,1.90
2019-01-30T17:11:31.955Z,1.90
2019-01-30T17:13:58.362Z,1.80
2019-01-30T17:16:24.694Z,1.90
2019-01-30T17:18:50.890Z,1.90
2019-01-30T17:21:17.127Z,1.90
2019-01-30T17:23:43.330Z,1.80
2019-01-30T17:26:09.654Z,1.80
2019-01-30T17:28:35.960Z,1.80
2019-01-30T17:31:03.686Z,1.80
2019-01-30T17:33:29.894Z,1.90
2019-01-30T17:35:56.198Z,1.90
2019-01-30T17:38:25.136Z,2.00
2019-01-30T17:40:50.631Z,1.90
2019-01-30T17:43:16.846Z,2.00
2019-01-30T17:45:43.070Z,2.00
2019-01-30T17:48:09.891Z,2.00
2019-01-30T17:50:36.103Z,2.00
2019-01-30T17:53:02.424Z,2.00
2019-01-30T17:55:28.971Z,2.00
2019-01-30T17:57:55.201Z,2.00
2019-01-30T18:00:26.719Z,2.00
2019-01-30T18:02:53.239Z,2.00
2019-01-30T18:05:19.442Z,2.00
2019-01-30T18:07:45.677Z,2.10
2019-01-30T18:10:13.587Z,2.10
2019-01-30T18:12:39.819Z,2.10
2019-01-30T18:15:09.535Z,2.00
2019-01-30T18:17:35.853Z,1.90
2019-01-30T18:20:07.945Z,1.90
2019-01-30T18:22:33.282Z,1.90
2019-01-30T18:24:59.487Z,1.90
2019-01-30T18:27:25.706Z,1.90
2019-01-30T18:29:51.916Z,1.90
2019-01-30T18:32:18.134Z,2.00
2019-01-30T18:34:44.343Z,1.90
2019-01-30T18:37:10.571Z,1.80
2019-01-30T18:39:36.774Z,1.80
2019-01-30T18:42:03.303Z,1.70
2019-01-30T18:44:29.522Z,1.80
2019-01-30T18:46:55.734Z,1.90
2019-01-30T18:49:21.930Z,1.90
2019-01-30T18:51:48.188Z,1.90
2019-01-30T18:54:14.391Z,2.00
2019-01-30T18:56:40.619Z,1.90
2019-01-30T18:59:06.825Z,1.90
2019-01-30T19:01:41.658Z,1.90
2019-01-30T19:04:13.926Z,1.90
2019-01-30T19:06:40.142Z,1.90
2019-01-30T19:09:07.858Z,1.90
2019-01-30T19:11:34.177Z,1.90
2019-01-30T19:14:00.374Z,1.90
2019-01-30T19:16:26.596Z,1.80
2019-01-30T19:18:52.804Z,1.90
2019-01-30T19:21:19.001Z,1.90
2019-01-30T19:23:45.217Z,1.90
2019-01-30T19:26:17.216Z,1.90
2019-01-30T19:29:02.254Z,1.90
2019-01-30T19:31:28.478Z,1.90
2019-01-30T19:33:54.777Z,1.90
2019-01-30T19:36:20.998Z,1.90
2019-01-30T19:38:47.201Z,1.80
2019-01-30T19:41:13.424Z,1.80
2019-01-30T19:43:39.634Z,1.80
2019-01-30T19:46:06.043Z,1.80
2019-01-30T19:48:32.391Z,1.80
2019-01-30T19:51:01.566Z,1.80
2019-01-30T19:53:27.579Z,1.90
2019-01-30T19:55:53.779Z,2.00
2019-01-30T19:58:20.248Z,2.00
2019-01-30T20:00:46.647Z,2.00
2019-01-30T20:03:18.068Z,2.10
2019-01-30T20:05:44.375Z,2.10
2019-01-30T20:08:10.799Z,2.10
2019-01-30T20:10:37.298Z,2.10
2019-01-30T20:13:04.226Z,2.10
2019-01-30T20:15:30.734Z,2.10
2019-01-30T20:17:57.546Z,2.10
2019-01-30T20:20:23.954Z,2.10
2019-01-30T20:22:50.289Z,2.10
2019-01-30T20:25:31.825Z,2.10
2019-01-30T20:27:58.093Z,2.10
2019-01-30T20:30:24.511Z,2.10
2019-01-30T20:32:50.836Z,2.10
2019-01-30T20:35:17.259Z,2.10
2019-01-30T20:37:43.591Z,2.10
2019-01-30T20:40:20.865Z,2.10
2019-01-30T20:42:47.230Z,2.00
2019-01-30T20:45:14.346Z,2.00
2019-01-30T20:47:40.966Z,2.00
2019-01-30T20:50:10.383Z,1.90
2019-01-30T20:52:36.607Z,1.80
2019-01-30T20:55:05.612Z,1.80
2019-01-30T20:57:31.846Z,1.80
2019-01-30T20:59:58.061Z,1.80
2019-01-30T21:02:24.467Z,1.80
2019-01-30T21:04:51.682Z,1.70
2019-01-30T21:07:17.904Z,1.60
2019-01-30T21:09:44.210Z,1.70
2019-01-30T21:12:10.468Z,1.70
2019-01-30T21:14:36.667Z,1.60
2019-01-30T21:17:03.002Z,1.60
2019-01-30T21:19:29.278Z,1.60
2019-01-30T21:21:55.576Z,1.60
2019-01-30T21:24:21.796Z,1.70
2019-01-30T21:26:47.999Z,1.60
2019-01-30T21:29:14.226Z,1.60
2019-01-30T21:31:40.431Z,1.50
2019-01-30T21:34:06.642Z,1.50
2019-01-30T21:36:32.862Z,1.50
2019-01-30T21:38:59.078Z,1.50
2019-01-30T21:41:25.274Z,1.40
2019-01-30T21:43:51.494Z,1.40
2019-01-30T21:46:17.699Z,1.30
2019-01-30T21:48:43.922Z,1.20
2019-01-30T21:51:10.114Z,1.20
2019-01-30T21:53:36.448Z,1.20
2019-01-30T21:56:02.951Z,1.10
2019-01-30T21:58:29.162Z,1.10
2019-01-30T22:00:55.370Z,1.00
2019-01-30T22:03:21.595Z,0.90
2019-01-30T22:05:48.130Z,0.90
2019-01-30T22:08:14.354Z,0.90
2019-01-30T22:10:40.663Z,0.90
2019-01-30T22:13:06.876Z,0.90
2019-01-30T22:15:33.070Z,0.80
2019-01-30T22:17:59.299Z,0.80
2019-01-30T22:20:26.860Z,0.70
2019-01-30T22:22:53.791Z,0.60
2019-01-30T22:25:21.794Z,0.50
2019-01-30T22:27:48.209Z,0.40
2019-01-30T22:30:20.042Z,0.30
2019-01-30T22:32:46.446Z,0.20
2019-01-30T22:35:12.785Z,0.20
2019-01-30T22:37:38.991Z,0.10
2019-01-30T22:40:08.615Z,0.10
2019-01-30T22:42:34.923Z,0.00
2019-01-30T22:45:01.139Z,-0.10
2019-01-30T22:47:27.351Z,-0.10
2019-01-30T22:49:53.586Z,-0.20
2019-01-30T22:52:19.864Z,-0.20
2019-01-30T22:54:46.114Z,-0.20
2019-01-30T22:57:12.317Z,-0.20
2019-01-30T22:59:38.554Z,-0.30
2019-01-30T23:02:05.142Z,-0.30
2019-01-30T23:04:40.874Z,-0.30
2019-01-30T23:07:10.881Z,-0.40
2019-01-30T23:09:57.541Z,-0.50
2019-01-30T23:12:45.320Z,-0.60
2019-01-30T23:15:17.954Z,-0.60
2019-01-30T23:18:10.531Z,-0.70
2019-01-30T23:20:40.050Z,-0.80
2019-01-30T23:23:31.501Z,-0.80
2019-01-30T23:26:07.410Z,-0.80
2019-01-30T23:28:37.422Z,-0.90
2019-01-30T23:31:13.676Z,-1.00
2019-01-30T23:33:58.319Z,-1.00
2019-01-30T23:36:53.911Z,-1.00
2019-01-30T23:39:36.293Z,-1.00
2019-01-30T23:42:30.027Z,-1.00
2019-01-30T23:45:21.006Z,-1.00
2019-01-30T23:48:12.514Z,-0.90
2019-01-30T23:51:08.326Z,-0.80
2019-01-30T23:53:47.243Z,-0.70
2019-01-30T23:56:32.600Z,-0.60
2019-01-30T23:59:22.379Z,-0.60
